Normanna, Texas
Current Conditions -  °F | °C
As of 7:15 AM on Thursday 23 Oct 2014 (Local Time) from KBEA Reporting Station
Clear Clear  
Wind Chill: 66°   Ceiling: Unl
Heat Index: 66°   Visibility: 10mi
Dew Point: 62°   Wind: 5mph
Humidity: 86%   Direction: 10°N
Pressure: 30.08"   Gusts: NA
Location:  28.53°N, 97.78°W
Report Text: KBEA 231215Z AUTO 01004KT 10SM CLR 19/17 A3008 RMK AO2 T01910168
Loading
Personal Weather Stations






























Interactive Weather Map New forecast layout! Learn more

10-Day Weather Forecast

Advertisements
Track Severe Weather on mobile